createdAt,value
2022-08-26T00:01:02.655Z,24
2022-08-26T00:02:11.230Z,21.6
2022-08-26T00:03:19.509Z,21.6
2022-08-26T00:04:27.862Z,21.6
2022-08-26T00:05:36.399Z,20.4
2022-08-26T00:06:45.981Z,20.4
2022-08-26T00:07:53.108Z,20.4
2022-08-26T00:09:01.633Z,22.1
2022-08-26T00:10:09.948Z,22.1
2022-08-26T00:11:25.830Z,22.1
2022-08-26T00:12:27.426Z,25.6
2022-08-26T00:13:35.115Z,25.6
2022-08-26T00:14:43.442Z,25.6
2022-08-26T00:15:51.970Z,20.9
2022-08-26T00:17:00.404Z,20.9
2022-08-26T00:18:16.887Z,20.9
2022-08-26T00:19:17.142Z,26.1
2022-08-26T00:20:25.453Z,26.1
2022-08-26T00:21:33.770Z,26.1
2022-08-26T00:22:42.302Z,27.200001
2022-08-26T00:23:50.614Z,27.200001
2022-08-26T00:24:58.931Z,27.200001
2022-08-26T00:26:08.292Z,26.799999
2022-08-26T00:27:15.789Z,26.799999
2022-08-26T00:28:24.126Z,26.799999
2022-08-26T00:29:33.671Z,22
2022-08-26T00:30:40.978Z,22
2022-08-26T00:31:49.375Z,22
2022-08-26T00:32:57.838Z,22.299999
2022-08-26T00:34:06.163Z,22.299999
2022-08-26T00:35:14.480Z,22.299999
2022-08-26T00:36:23.013Z,21.5
2022-08-26T00:37:31.329Z,21.5
2022-08-26T00:38:39.638Z,21.5
2022-08-26T00:39:48.207Z,21.700001
2022-08-26T00:40:56.495Z,21.700001
2022-08-26T00:42:04.841Z,21.700001
2022-08-26T00:43:13.383Z,21.9
2022-08-26T00:44:21.704Z,21.9
2022-08-26T00:45:30.078Z,21.9
2022-08-26T00:46:38.570Z,22.4
2022-08-26T00:47:46.903Z,22.4
2022-08-26T00:48:55.221Z,22.4
2022-08-26T00:50:03.743Z,25.299999
2022-08-26T00:51:12.054Z,25.299999
2022-08-26T00:52:20.394Z,25.299999
2022-08-26T00:53:28.934Z,18
2022-08-26T00:54:37.271Z,18
2022-08-26T00:55:45.607Z,18
2022-08-26T00:56:54.162Z,22
2022-08-26T00:58:02.483Z,22
2022-08-26T00:59:10.811Z,22
2022-08-26T01:00:19.364Z,28.5
2022-08-26T01:01:27.714Z,28.5
2022-08-26T01:02:36.083Z,28.5
2022-08-26T01:03:44.573Z,23.799999
2022-08-26T01:04:54.437Z,23.799999
2022-08-26T01:06:01.244Z,23.799999
2022-08-26T01:07:09.803Z,24.6
2022-08-26T01:08:18.150Z,24.6
2022-08-26T01:09:26.494Z,24.6
2022-08-26T01:10:35.024Z,23.6
2022-08-26T01:11:43.422Z,23.6
2022-08-26T01:12:51.704Z,23.6
2022-08-26T01:14:00.249Z,25.9
2022-08-26T01:15:08.565Z,25.9
2022-08-26T01:16:17.047Z,25.9
2022-08-26T01:17:25.463Z,22.4
2022-08-26T01:18:33.794Z,22.4
2022-08-26T01:19:42.113Z,22.4
2022-08-26T01:20:50.637Z,25.4
2022-08-26T01:21:58.966Z,25.4
2022-08-26T01:23:08.560Z,25.4
2022-08-26T01:24:15.815Z,24.5
2022-08-26T01:25:24.129Z,24.5
2022-08-26T01:26:32.450Z,24.5
2022-08-26T01:27:40.980Z,27.299999
2022-08-26T01:28:50.559Z,27.299999
2022-08-26T01:29:57.600Z,27.299999
2022-08-26T01:31:06.124Z,24.1
2022-08-26T01:32:14.446Z,24.1
2022-08-26T01:33:22.760Z,24.1
2022-08-26T01:34:31.286Z,20.6
2022-08-26T01:35:39.611Z,20.6
2022-08-26T01:36:51.152Z,20.6
2022-08-26T01:37:56.475Z,21.200001
2022-08-26T01:39:05.804Z,21.200001
2022-08-26T01:40:13.217Z,21.200001
2022-08-26T01:41:21.672Z,25
2022-08-26T01:42:29.994Z,25
2022-08-26T01:43:38.300Z,25
2022-08-26T01:44:46.842Z,21.299999
2022-08-26T01:45:55.253Z,21.299999
2022-08-26T01:47:04.991Z,21.299999
2022-08-26T01:48:12.061Z,23.6
2022-08-26T01:49:20.379Z,23.6
2022-08-26T01:50:30.036Z,23.6
2022-08-26T01:51:37.335Z,21.799999
2022-08-26T01:52:45.560Z,21.799999
2022-08-26T01:53:53.873Z,21.799999
2022-08-26T01:55:02.405Z,21
2022-08-26T01:56:10.740Z,21
2022-08-26T01:57:19.069Z,21
2022-08-26T01:58:27.594Z,20.5
2022-08-26T01:59:35.913Z,20.5
2022-08-26T02:00:44.335Z,20.5
2022-08-26T02:01:52.857Z,22.299999
2022-08-26T02:03:01.122Z,22.299999
2022-08-26T02:04:09.432Z,22.299999
2022-08-26T02:05:17.937Z,23.299999
2022-08-26T02:06:26.263Z,23.299999
2022-08-26T02:07:34.579Z,23.299999
2022-08-26T02:08:43.117Z,23.799999
2022-08-26T02:09:51.443Z,23.799999
2022-08-26T02:10:59.804Z,23.799999
2022-08-26T02:12:08.346Z,23.299999
2022-08-26T02:13:16.686Z,23.299999
2022-08-26T02:14:26.722Z,23.299999
2022-08-26T02:15:33.567Z,23.5
2022-08-26T02:16:42.363Z,23.5
2022-08-26T02:17:50.233Z,23.5
2022-08-26T02:18:58.765Z,22.200001
2022-08-26T02:20:07.121Z,22.200001
2022-08-26T02:21:15.464Z,22.200001
2022-08-26T02:22:24.551Z,22.9
2022-08-26T02:23:32.316Z,22.9
2022-08-26T02:24:40.637Z,22.9
2022-08-26T02:25:49.174Z,22.799999
2022-08-26T02:26:57.500Z,22.799999
2022-08-26T02:28:05.798Z,22.799999
2022-08-26T02:29:14.325Z,26.4
2022-08-26T02:30:22.639Z,26.4
2022-08-26T02:31:31.025Z,26.4
2022-08-26T02:32:40.146Z,24.6
2022-08-26T02:33:47.801Z,24.6
2022-08-26T02:34:56.120Z,24.6
2022-08-26T02:36:04.657Z,24.5
2022-08-26T02:37:12.982Z,24.5
2022-08-26T02:38:21.295Z,24.5
2022-08-26T02:39:29.834Z,27.299999
2022-08-26T02:40:38.182Z,27.299999
2022-08-26T02:41:46.516Z,27.299999
2022-08-26T02:42:55.860Z,20.799999
2022-08-26T02:44:03.369Z,20.799999
2022-08-26T02:45:11.720Z,20.799999
2022-08-26T02:46:21.616Z,25.799999
2022-08-26T02:47:28.978Z,25.799999
2022-08-26T02:48:36.909Z,25.799999
2022-08-26T02:49:47.354Z,27.799999
2022-08-26T02:50:53.771Z,27.799999
2022-08-26T02:52:02.164Z,27.799999
2022-08-26T02:53:10.621Z,23.9
2022-08-26T02:54:18.938Z,23.9
2022-08-26T02:55:27.267Z,23.9
2022-08-26T02:56:35.811Z,28.5
2022-08-26T02:57:44.132Z,28.5
2022-08-26T02:58:52.451Z,28.5
2022-08-26T03:00:01.021Z,22.9
2022-08-26T03:01:09.393Z,22.9
2022-08-26T03:02:17.703Z,22.9
2022-08-26T03:03:26.174Z,25.700001
2022-08-26T03:04:34.502Z,25.700001
2022-08-26T03:05:42.844Z,25.700001
2022-08-26T03:06:52.822Z,23.799999
2022-08-26T03:07:59.705Z,23.799999
2022-08-26T03:09:08.036Z,23.799999
2022-08-26T03:10:16.596Z,24
2022-08-26T03:11:26.753Z,24
2022-08-26T03:12:33.246Z,24
2022-08-26T03:13:41.787Z,19
2022-08-26T03:14:50.096Z,19
2022-08-26T03:15:58.475Z,19
2022-08-26T03:17:06.970Z,23.200001
2022-08-26T03:18:15.297Z,23.200001
2022-08-26T03:19:23.618Z,23.200001
2022-08-26T03:20:32.171Z,22.1
2022-08-26T03:21:40.504Z,22.1
2022-08-26T03:22:48.837Z,22.1
2022-08-26T03:23:58.480Z,24.5
2022-08-26T03:25:05.691Z,24.5
2022-08-26T03:26:14.021Z,24.5
2022-08-26T03:27:22.553Z,25.299999
2022-08-26T03:28:30.875Z,25.299999
2022-08-26T03:29:39.203Z,25.299999
2022-08-26T03:30:47.751Z,21.700001
2022-08-26T03:31:56.097Z,21.700001
2022-08-26T03:33:04.479Z,21.700001
2022-08-26T03:34:13.006Z,25.299999
2022-08-26T03:35:21.851Z,25.299999
2022-08-26T03:36:29.693Z,25.299999
2022-08-26T03:37:38.232Z,23.6
2022-08-26T03:38:46.539Z,23.6
2022-08-26T03:39:54.894Z,23.6
2022-08-26T03:41:03.960Z,23.5
2022-08-26T03:42:12.295Z,23.5
2022-08-26T03:43:20.629Z,23.5
2022-08-26T03:44:29.168Z,21.4
2022-08-26T03:45:39.028Z,21.4
2022-08-26T03:46:48.773Z,21.4
2022-08-26T03:47:58.579Z,24.9
2022-08-26T03:49:06.916Z,24.9
2022-08-26T03:50:15.259Z,24.9
2022-08-26T03:51:24.260Z,30.6
2022-08-26T03:52:32.117Z,30.6
2022-08-26T03:53:40.433Z,30.6
2022-08-26T03:54:48.968Z,26.200001
2022-08-26T03:55:57.292Z,26.200001
2022-08-26T03:57:05.632Z,26.200001
2022-08-26T03:58:14.166Z,21.9
2022-08-26T03:59:22.489Z,21.9
2022-08-26T04:00:30.809Z,21.9
2022-08-26T04:01:39.366Z,28.299999
2022-08-26T04:02:47.720Z,28.299999
2022-08-26T04:03:56.030Z,28.299999
2022-08-26T04:05:04.579Z,25.5
2022-08-26T04:06:12.911Z,25.5
2022-08-26T04:07:21.234Z,25.5
2022-08-26T04:08:29.779Z,27.299999
2022-08-26T04:09:38.112Z,27.299999
2022-08-26T04:10:46.438Z,27.299999
2022-08-26T04:11:54.956Z,28.200001
2022-08-26T04:13:03.292Z,28.200001
2022-08-26T04:14:11.630Z,28.200001
2022-08-26T04:15:20.186Z,29.799999
2022-08-26T04:16:28.545Z,29.799999
2022-08-26T04:17:36.836Z,29.799999
2022-08-26T04:18:46.496Z,28.4
2022-08-26T04:19:53.706Z,28.4
2022-08-26T04:21:02.028Z,28.4
2022-08-26T04:22:10.560Z,27.5
2022-08-26T04:23:18.908Z,27.5
2022-08-26T04:24:27.850Z,27.5
2022-08-26T04:25:35.800Z,27.200001
2022-08-26T04:26:44.144Z,27.200001
2022-08-26T04:27:52.459Z,27.200001
2022-08-26T04:29:01.014Z,31.700001
2022-08-26T04:30:09.590Z,31.700001
2022-08-26T04:31:17.729Z,31.700001
2022-08-26T04:32:26.247Z,35
2022-08-26T04:33:34.577Z,35
2022-08-26T04:34:42.922Z,35
2022-08-26T04:35:51.471Z,30.700001
2022-08-26T04:36:59.803Z,30.700001
2022-08-26T04:38:08.131Z,30.700001
2022-08-26T04:39:16.701Z,28.700001
2022-08-26T04:40:25.896Z,28.700001
2022-08-26T04:41:33.402Z,28.700001
2022-08-26T04:42:41.975Z,28.700001
2022-08-26T04:43:50.313Z,28.700001
2022-08-26T04:44:58.662Z,28.700001
2022-08-26T04:46:07.216Z,27.799999
2022-08-26T04:47:15.557Z,27.799999
2022-08-26T04:48:23.909Z,27.799999
2022-08-26T04:49:35.314Z,25.9
2022-08-26T04:50:44.425Z,25.9
2022-08-26T04:51:52.766Z,25.9
2022-08-26T04:53:01.310Z,26.9
2022-08-26T04:54:09.643Z,26.9
2022-08-26T04:55:17.977Z,26.9
2022-08-26T04:56:26.529Z,27.299999
2022-08-26T04:57:34.879Z,27.299999
2022-08-26T04:58:43.228Z,27.299999
2022-08-26T04:59:51.751Z,23.799999
2022-08-26T05:01:00.124Z,23.799999
2022-08-26T05:02:08.452Z,23.799999
2022-08-26T05:03:16.976Z,24
2022-08-26T05:04:25.414Z,24
2022-08-26T05:05:33.655Z,24
2022-08-26T05:06:42.183Z,25.6
2022-08-26T05:07:50.510Z,25.6
2022-08-26T05:08:58.851Z,25.6
2022-08-26T05:10:08.847Z,26.9
2022-08-26T05:11:15.719Z,26.9
2022-08-26T05:12:24.040Z,26.9
2022-08-26T05:13:32.599Z,26.4
2022-08-26T05:14:40.921Z,26.4
2022-08-26T05:15:49.301Z,26.4
2022-08-26T05:16:57.822Z,32.299999
2022-08-26T05:18:06.160Z,32.299999
2022-08-26T05:19:14.499Z,32.299999
2022-08-26T05:20:25.716Z,28.6
2022-08-26T05:21:31.385Z,28.6
2022-08-26T05:22:39.725Z,28.6
2022-08-26T05:23:48.277Z,37.200001
2022-08-26T05:24:56.608Z,37.200001
2022-08-26T05:26:05.142Z,37.200001
2022-08-26T05:27:13.502Z,31.5
2022-08-26T05:28:21.851Z,31.5
2022-08-26T05:29:30.179Z,31.5
2022-08-26T05:30:38.718Z,31
2022-08-26T05:31:47.050Z,31
2022-08-26T05:32:55.514Z,31
2022-08-26T05:34:03.967Z,35
2022-08-26T05:35:12.295Z,35
2022-08-26T05:36:20.619Z,35
2022-08-26T05:37:29.169Z,33.799999
2022-08-26T05:38:37.501Z,33.799999
2022-08-26T05:39:48.821Z,33.799999
2022-08-26T05:40:54.376Z,28.799999
2022-08-26T05:42:02.715Z,28.799999
2022-08-26T05:43:11.052Z,28.799999
2022-08-26T05:44:19.602Z,34
2022-08-26T05:45:27.934Z,34
2022-08-26T05:46:36.291Z,34
2022-08-26T05:47:44.797Z,29.1
2022-08-26T05:48:53.151Z,29.1
2022-08-26T05:50:01.481Z,29.1
2022-08-26T05:51:10.018Z,32.5
2022-08-26T05:52:18.360Z,32.5
2022-08-26T05:53:26.703Z,32.5
2022-08-26T05:54:35.243Z,26
2022-08-26T05:55:43.563Z,26
2022-08-26T05:56:51.906Z,26
2022-08-26T05:58:00.438Z,29.1
2022-08-26T05:59:10.938Z,29.1
2022-08-26T06:00:17.091Z,29.1
2022-08-26T06:01:25.695Z,28.799999
2022-08-26T06:02:34.045Z,28.799999
2022-08-26T06:03:42.338Z,28.799999
2022-08-26T06:04:50.897Z,26
2022-08-26T06:05:59.213Z,26
2022-08-26T06:07:07.559Z,26
2022-08-26T06:08:16.112Z,28.200001
2022-08-26T06:09:24.447Z,28.200001
2022-08-26T06:10:33.163Z,28.200001
2022-08-26T06:11:41.333Z,25.4
2022-08-26T06:12:49.671Z,25.4
2022-08-26T06:14:02.678Z,25.4
2022-08-26T06:15:06.548Z,30.799999
2022-08-26T06:16:14.975Z,30.799999
2022-08-26T06:17:23.202Z,30.799999
2022-08-26T06:18:31.752Z,27.9
2022-08-26T06:19:41.327Z,27.9
2022-08-26T06:20:49.605Z,27.9
2022-08-26T06:21:56.957Z,27.1
2022-08-26T06:23:05.329Z,27.1
2022-08-26T06:24:13.633Z,27.1
2022-08-26T06:25:22.190Z,30.6
2022-08-26T06:26:30.536Z,30.6
2022-08-26T06:27:38.865Z,30.6
2022-08-26T06:28:47.403Z,25.700001
2022-08-26T06:29:55.718Z,25.700001
2022-08-26T06:31:04.140Z,25.700001
2022-08-26T06:32:12.597Z,23.700001
2022-08-26T06:33:20.927Z,23.700001
2022-08-26T06:34:29.973Z,23.700001
2022-08-26T06:35:37.783Z,30.5
2022-08-26T06:36:46.119Z,30.5
2022-08-26T06:37:54.461Z,30.5
2022-08-26T06:39:03.001Z,24.700001
2022-08-26T06:40:11.429Z,24.700001
2022-08-26T06:41:19.650Z,24.700001
2022-08-26T06:42:28.188Z,24.200001
2022-08-26T06:43:36.523Z,24.200001
2022-08-26T06:44:44.967Z,24.200001
2022-08-26T06:45:53.447Z,28.6
2022-08-26T06:47:01.748Z,28.6
2022-08-26T06:48:10.090Z,28.6
2022-08-26T06:49:18.635Z,24.4
2022-08-26T06:50:26.978Z,24.4
2022-08-26T06:51:35.318Z,24.4
2022-08-26T06:52:43.836Z,26
2022-08-26T06:53:52.200Z,26
2022-08-26T06:55:00.528Z,26
2022-08-26T06:56:09.049Z,27.5
2022-08-26T06:57:17.379Z,27.5
2022-08-26T06:58:25.715Z,27.5
2022-08-26T06:59:34.254Z,28.4
2022-08-26T07:00:47.298Z,28.4
2022-08-26T07:01:50.936Z,28.4
2022-08-26T07:02:59.543Z,27.799999
2022-08-26T07:04:07.874Z,27.799999
2022-08-26T07:05:16.191Z,27.799999
2022-08-26T07:06:24.742Z,25.700001
2022-08-26T07:07:33.090Z,25.700001
2022-08-26T07:08:41.432Z,25.700001
2022-08-26T07:09:52.523Z,26.4
2022-08-26T07:10:58.308Z,26.4
2022-08-26T07:12:06.882Z,26.4
2022-08-26T07:13:15.214Z,22.200001
2022-08-26T07:14:23.541Z,22.200001
2022-08-26T07:15:31.917Z,22.200001
2022-08-26T07:16:40.420Z,24.799999
2022-08-26T07:17:48.771Z,24.799999
2022-08-26T07:18:57.106Z,24.799999
2022-08-26T07:20:05.654Z,26.6
2022-08-26T07:21:13.992Z,26.6
2022-08-26T07:22:22.334Z,26.6
2022-08-26T07:23:30.891Z,26.299999
2022-08-26T07:24:39.235Z,26.299999
2022-08-26T07:25:47.569Z,26.299999
2022-08-26T07:26:56.113Z,24.6
2022-08-26T07:28:04.454Z,24.6
2022-08-26T07:29:12.798Z,24.6
2022-08-26T07:30:21.354Z,22.1
2022-08-26T07:31:30.970Z,22.1
2022-08-26T07:32:38.007Z,22.1
2022-08-26T07:33:46.580Z,26.6
2022-08-26T07:34:54.918Z,26.6
2022-08-26T07:36:04.264Z,26.6
2022-08-26T07:37:11.827Z,26.200001
2022-08-26T07:38:20.176Z,26.200001
2022-08-26T07:39:28.507Z,26.200001
2022-08-26T07:40:37.057Z,26.6
2022-08-26T07:41:45.405Z,26.6
2022-08-26T07:42:53.750Z,26.6
2022-08-26T07:44:02.297Z,24.4
2022-08-26T07:45:10.625Z,24.4
2022-08-26T07:46:20.713Z,24.4
2022-08-26T07:47:27.529Z,24.799999
2022-08-26T07:48:35.886Z,24.799999
2022-08-26T07:49:44.255Z,24.799999
2022-08-26T07:50:52.754Z,26
2022-08-26T07:52:01.099Z,26
2022-08-26T07:53:10.724Z,26
2022-08-26T07:54:17.993Z,25.299999
2022-08-26T07:55:26.341Z,25.299999
2022-08-26T07:56:34.661Z,25.299999
2022-08-26T07:57:43.207Z,25.799999
2022-08-26T07:58:52.154Z,25.799999
2022-08-26T07:59:59.892Z,25.799999
2022-08-26T08:01:08.462Z,25.6
2022-08-26T08:02:16.777Z,25.6
2022-08-26T08:03:25.118Z,25.6
2022-08-26T08:04:33.673Z,23.299999
2022-08-26T08:05:42.001Z,23.299999
2022-08-26T08:06:50.344Z,23.299999
2022-08-26T08:08:17.316Z,25.6
2022-08-26T08:09:07.210Z,25.6
2022-08-26T08:10:15.554Z,25.6
2022-08-26T08:11:24.112Z,29.799999
2022-08-26T08:12:32.473Z,29.799999
2022-08-26T08:13:40.810Z,29.799999
2022-08-26T08:14:49.347Z,22.299999
2022-08-26T08:15:57.661Z,22.299999
2022-08-26T08:17:06.071Z,22.299999
2022-08-26T08:18:15.702Z,27.1
2022-08-26T08:19:22.849Z,27.1
2022-08-26T08:20:31.183Z,27.1
2022-08-26T08:21:39.690Z,22.1
2022-08-26T08:22:48.027Z,22.1
2022-08-26T08:23:56.366Z,22.1
2022-08-26T08:25:06.323Z,24.1
2022-08-26T08:26:13.218Z,24.1
2022-08-26T08:27:23.927Z,24.1
2022-08-26T08:28:30.111Z,28.299999
2022-08-26T08:29:38.454Z,28.299999
2022-08-26T08:30:46.960Z,28.299999
2022-08-26T08:31:56.383Z,24.299999
2022-08-26T08:33:03.700Z,24.299999
2022-08-26T08:34:12.040Z,24.299999
2022-08-26T08:35:20.579Z,21
2022-08-26T08:36:32.209Z,21
2022-08-26T08:37:37.274Z,21
2022-08-26T08:38:45.814Z,21.5
2022-08-26T08:39:54.190Z,21.5
2022-08-26T08:41:03.457Z,21.5
2022-08-26T08:42:11.067Z,21.700001
2022-08-26T08:43:19.416Z,21.700001
2022-08-26T08:45:37.017Z,18.6
2022-08-26T08:46:44.662Z,18.6
2022-08-26T08:47:54.059Z,18.6
2022-08-26T08:49:01.589Z,22
2022-08-26T08:50:09.936Z,22
2022-08-26T08:51:18.284Z,22
2022-08-26T08:52:26.841Z,16.5
2022-08-26T08:53:35.176Z,16.5
2022-08-26T08:54:43.505Z,16.5
2022-08-26T08:55:52.063Z,20.6
2022-08-26T08:57:00.413Z,20.6
2022-08-26T08:58:08.858Z,20.6
2022-08-26T08:59:17.371Z,19.9
2022-08-26T09:00:30.176Z,19.9
2022-08-26T09:01:35.226Z,19.9
2022-08-26T09:02:42.617Z,20
2022-08-26T09:03:50.934Z,20
2022-08-26T09:04:59.282Z,20
2022-08-26T09:06:07.814Z,19.799999
2022-08-26T09:07:16.172Z,19.799999
2022-08-26T09:08:24.518Z,19.799999
2022-08-26T09:09:33.058Z,21.5
2022-08-26T09:10:41.393Z,21.5
2022-08-26T09:11:49.745Z,21.5
2022-08-26T09:12:58.424Z,18.9
2022-08-26T09:14:06.827Z,18.9
2022-08-26T09:15:15.167Z,18.9
2022-08-26T09:16:23.829Z,17
2022-08-26T09:17:32.136Z,17
2022-08-26T09:18:40.481Z,17
2022-08-26T09:19:49.027Z,20.700001
2022-08-26T09:20:57.385Z,20.700001
2022-08-26T09:22:08.715Z,20.700001
2022-08-26T09:23:14.292Z,21.700001
2022-08-26T09:24:22.625Z,21.700001
2022-08-26T09:25:30.959Z,21.700001
2022-08-26T09:26:39.519Z,22.1
2022-08-26T09:27:50.368Z,22.1
2022-08-26T09:28:56.220Z,22.1
2022-08-26T09:30:04.768Z,20.1
2022-08-26T09:31:13.176Z,20.1
2022-08-26T09:32:21.441Z,20.1
2022-08-26T09:33:29.986Z,15.3
2022-08-26T09:34:38.350Z,15.3
2022-08-26T09:35:46.699Z,15.3
2022-08-26T09:36:55.248Z,22.9
2022-08-26T09:38:03.595Z,22.9
2022-08-26T09:39:11.920Z,22.9
2022-08-26T09:40:20.661Z,18.4
2022-08-26T09:41:28.800Z,18.4
2022-08-26T09:42:37.142Z,18.4
2022-08-26T09:43:45.700Z,18.4
2022-08-26T09:44:54.039Z,18.4
2022-08-26T09:46:02.408Z,18.4
2022-08-26T09:47:10.935Z,16.700001
2022-08-26T09:48:19.291Z,16.700001
2022-08-26T09:49:27.629Z,16.700001
2022-08-26T09:50:36.174Z,17.5
2022-08-26T09:51:44.535Z,17.5
2022-08-26T09:52:52.873Z,17.5
2022-08-26T09:54:01.416Z,15.4
2022-08-26T09:55:09.755Z,15.4
2022-08-26T09:56:18.101Z,15.4
2022-08-26T09:57:26.662Z,16.9
2022-08-26T09:58:34.999Z,16.9
2022-08-26T09:59:43.350Z,16.9
2022-08-26T10:00:51.971Z,19.799999
2022-08-26T10:03:08.762Z,19.799999
2022-08-26T10:04:17.173Z,19.4
2022-08-26T10:05:25.487Z,19.4
2022-08-26T10:06:33.812Z,19.4
2022-08-26T10:07:42.380Z,20.700001
2022-08-26T10:08:50.724Z,20.700001
2022-08-26T10:09:59.065Z,20.700001
2022-08-26T10:11:07.606Z,19.799999
2022-08-26T10:12:17.560Z,19.799999
2022-08-26T10:13:31.125Z,19.799999
2022-08-26T10:14:39.638Z,19.5
2022-08-26T10:15:50.615Z,19.5
2022-08-26T10:16:56.589Z,19.5
2022-08-26T10:18:05.137Z,17.5
2022-08-26T10:19:13.522Z,17.5
2022-08-26T10:20:23.033Z,17.5
2022-08-26T10:21:30.380Z,20.299999
2022-08-26T10:22:38.751Z,20.299999
2022-08-26T10:23:47.084Z,20.299999
2022-08-26T10:24:55.629Z,18.700001
2022-08-26T10:26:03.971Z,18.700001
2022-08-26T10:27:12.330Z,18.700001
2022-08-26T10:28:20.871Z,18.700001
2022-08-26T10:29:29.211Z,18.700001
2022-08-26T10:30:37.543Z,18.700001
2022-08-26T10:31:46.093Z,17.5
2022-08-26T10:32:54.428Z,17.5
2022-08-26T10:34:02.790Z,17.5
2022-08-26T10:35:11.325Z,19.799999
2022-08-26T10:36:20.214Z,19.799999
2022-08-26T10:37:27.987Z,19.799999
2022-08-26T10:38:36.524Z,20.799999
2022-08-26T10:39:44.870Z,20.799999
2022-08-26T10:40:53.225Z,20.799999
2022-08-26T10:42:01.759Z,21.1
2022-08-26T10:43:10.600Z,21.1
2022-08-26T10:44:18.434Z,21.1
2022-08-26T10:45:26.976Z,16.200001
2022-08-26T10:46:35.328Z,16.200001
2022-08-26T10:47:43.659Z,16.200001
2022-08-26T10:48:52.219Z,17.799999
2022-08-26T10:50:00.656Z,17.799999
2022-08-26T10:51:08.886Z,17.799999
2022-08-26T10:52:17.445Z,17.9
2022-08-26T10:53:26.452Z,17.9
2022-08-26T10:54:34.184Z,17.9
2022-08-26T10:55:42.733Z,27
2022-08-26T10:56:51.086Z,27
2022-08-26T10:57:59.417Z,27
2022-08-26T10:59:10.200Z,21.799999
2022-08-26T12:58:25.120Z,18.700001
2022-08-26T12:59:33.824Z,18.700001
2022-08-26T13:00:42.507Z,18.1
2022-08-26T13:01:50.831Z,18.1
2022-08-26T13:02:59.089Z,18.1
2022-08-26T13:04:07.632Z,17.5
2022-08-26T13:05:15.972Z,17.5
2022-08-26T13:06:24.858Z,17.5
2022-08-26T13:07:33.431Z,15.6
2022-08-26T13:08:41.834Z,15.6
2022-08-26T13:09:50.173Z,15.6
2022-08-26T13:10:58.739Z,15
2022-08-26T13:12:07.073Z,15
2022-08-26T13:13:15.427Z,15
2022-08-26T13:14:24.638Z,16.1
2022-08-26T13:15:32.333Z,16.1
2022-08-26T13:16:40.804Z,16.1
2022-08-26T13:17:49.266Z,16.9
2022-08-26T13:18:57.613Z,16.9
2022-08-26T13:20:05.961Z,16.9
2022-08-26T13:21:14.536Z,17.799999
2022-08-26T13:22:22.852Z,17.799999
2022-08-26T13:23:31.225Z,17.799999
2022-08-26T13:24:39.790Z,16.799999
2022-08-26T13:25:48.125Z,16.799999
2022-08-26T13:26:56.451Z,16.799999
2022-08-26T13:28:05.002Z,15.1
2022-08-26T13:29:13.358Z,15.1
2022-08-26T13:30:21.707Z,15.1
2022-08-26T13:31:30.292Z,16.1
2022-08-26T13:32:38.602Z,16.1
2022-08-26T13:33:46.945Z,16.1
2022-08-26T13:34:55.492Z,16.9
2022-08-26T13:36:03.839Z,16.9
2022-08-26T13:37:12.163Z,16.9
2022-08-26T13:38:33.540Z,14.2
2022-08-26T13:39:29.071Z,14.2
2022-08-26T13:40:37.471Z,14.2
2022-08-26T13:41:45.998Z,11.2
2022-08-26T13:42:54.338Z,11.2
2022-08-26T13:44:02.698Z,11.2
2022-08-26T13:45:11.246Z,13.7
2022-08-26T13:46:19.652Z,13.7
2022-08-26T13:47:27.938Z,13.7
2022-08-26T13:48:36.524Z,15.1
2022-08-26T13:49:44.865Z,15.1
2022-08-26T13:50:53.208Z,15.1
2022-08-26T13:52:01.748Z,17.299999
2022-08-26T13:53:10.093Z,17.299999
2022-08-26T13:54:18.421Z,17.299999
2022-08-26T13:55:27.296Z,16.6
2022-08-26T13:56:35.746Z,16.6
2022-08-26T13:57:47.704Z,16.6
2022-08-26T13:58:56.510Z,13.3
2022-08-26T14:00:05.290Z,13.3
2022-08-26T14:01:13.636Z,13.3
2022-08-26T14:02:22.105Z,13.5
2022-08-26T14:03:30.521Z,13.5
2022-08-26T14:04:38.792Z,13.5
2022-08-26T14:05:47.359Z,19.799999
2022-08-26T14:06:55.734Z,19.799999
2022-08-26T14:08:04.078Z,19.799999
2022-08-26T14:09:12.627Z,15.2
2022-08-26T14:10:21.015Z,15.2
2022-08-26T14:11:29.356Z,15.2
2022-08-26T14:12:37.910Z,15.9
2022-08-26T14:13:46.253Z,15.9
2022-08-26T14:14:54.600Z,15.9
2022-08-26T14:16:03.175Z,16.799999
2022-08-26T14:17:11.506Z,16.799999
2022-08-26T14:18:19.859Z,16.799999
2022-08-26T14:19:28.413Z,15.8
2022-08-26T14:20:36.743Z,15.8
2022-08-26T14:21:45.087Z,15.8
2022-08-26T14:23:17.987Z,16.799999
2022-08-26T14:24:02.028Z,16.799999
2022-08-26T14:25:10.374Z,16.799999
2022-08-26T14:26:28.197Z,15.8
2022-08-26T14:27:27.297Z,15.8
2022-08-26T14:28:35.643Z,15.8
2022-08-26T14:29:44.179Z,16
2022-08-26T15:05:21.432Z,0
2022-08-26T15:06:29.767Z,0
2022-08-26T15:07:38.118Z,0
2022-08-26T15:08:46.665Z,8.1
2022-08-26T15:09:54.984Z,8.1
2022-08-26T15:11:03.336Z,8.1
2022-08-26T15:12:11.894Z,10
2022-08-26T15:13:20.232Z,10
2022-08-26T15:14:32.341Z,10
2022-08-26T15:15:37.127Z,9.7
2022-08-26T15:16:45.464Z,9.7
2022-08-26T15:17:53.814Z,9.7
2022-08-26T15:19:02.489Z,10.4
2022-08-26T15:20:10.699Z,10.4
2022-08-26T15:21:19.041Z,10.4
2022-08-26T15:22:28.559Z,9.6
2022-08-26T15:23:35.935Z,9.6
2022-08-26T15:24:44.279Z,9.6
2022-08-26T15:25:52.827Z,8.2
2022-08-26T15:27:01.163Z,8.2
2022-08-26T15:28:09.500Z,8.2
2022-08-26T15:29:18.055Z,10.5
2022-08-26T15:30:26.404Z,10.5
2022-08-26T15:31:34.852Z,10.5
